createdAt,value
2022-10-31T00:01:24.737Z,101362.78
2022-10-31T00:03:52.552Z,101370.06
2022-10-31T00:06:22.509Z,101366.66
2022-10-31T00:08:56.231Z,101360.38
2022-10-31T00:11:24.917Z,101361.53
2022-10-31T00:13:53.686Z,101368.63
2022-10-31T00:16:24.268Z,101360.53
2022-10-31T00:18:54.170Z,101373.94
2022-10-31T00:21:24.469Z,101373.44
2022-10-31T00:23:52.437Z,101372.47
2022-10-31T00:26:21.243Z,101379.88
2022-10-31T00:28:49.515Z,101375.63
2022-10-31T00:31:17.431Z,101383.91
2022-10-31T00:33:45.303Z,101380.84
2022-10-31T00:36:16.405Z,101382.22
2022-10-31T00:38:46.836Z,101379.63
2022-10-31T00:41:18.233Z,101381.03
2022-10-31T00:43:46.606Z,101393.19
2022-10-31T00:46:15.663Z,101383.03
2022-10-31T00:48:44.131Z,101390.31
2022-10-31T00:51:12.547Z,101387.59
2022-10-31T00:53:40.256Z,101394.50
2022-10-31T00:56:09.733Z,101397.81
2022-10-31T00:58:37.585Z,101404.94
2022-10-31T01:01:06.129Z,101403.91
2022-10-31T01:03:35.737Z,101406.75
2022-10-31T01:06:07.595Z,101404.50
2022-10-31T01:08:36.037Z,101413.09
2022-10-31T01:11:10.150Z,101403.66
2022-10-31T01:13:38.445Z,101401.00
2022-10-31T01:16:09.054Z,101410.78
2022-10-31T01:18:36.872Z,101408.78
2022-10-31T01:21:08.374Z,101403.44
2022-10-31T01:23:37.513Z,101402.06
2022-10-31T01:26:11.003Z,101406.44
2022-10-31T01:28:41.334Z,101406.63
2022-10-31T01:31:11.270Z,101406.16
2022-10-31T01:33:39.755Z,101408.00
2022-10-31T01:36:18.566Z,101402.75
2022-10-31T01:38:47.527Z,101412.75
2022-10-31T01:41:20.010Z,101406.34
2022-10-31T01:43:52.178Z,101409.22
2022-10-31T01:46:26.303Z,101402.25
2022-10-31T01:48:57.481Z,101413.22
2022-10-31T01:51:32.077Z,101423.19
2022-10-31T01:54:06.290Z,101419.31
2022-10-31T01:56:40.683Z,101423.66
2022-10-31T01:59:14.566Z,101415.06
2022-10-31T02:01:43.082Z,101428.75
2022-10-31T02:04:11.463Z,101420.28
2022-10-31T02:06:48.507Z,101417.91
2022-10-31T02:09:18.587Z,101414.50
2022-10-31T02:11:48.658Z,101414.88
2022-10-31T02:14:16.580Z,101419.25
2022-10-31T02:16:44.408Z,101412.38
2022-10-31T02:19:20.405Z,101412.19
2022-10-31T02:21:58.459Z,101411.31
2022-10-31T02:24:48.223Z,101416.06
2022-10-31T02:27:38.516Z,101409.13
2022-10-31T02:30:16.345Z,101412.47
2022-10-31T02:33:09.853Z,101418.16
2022-10-31T02:35:50.731Z,101418.16
2022-10-31T02:38:41.572Z,101419.34
2022-10-31T02:41:31.456Z,101419.66
2022-10-31T02:44:10.869Z,101427.13
2022-10-31T02:46:50.064Z,101429.81
2022-10-31T02:49:30.064Z,101425.97
2022-10-31T02:51:57.897Z,101428.34
2022-10-31T02:54:29.511Z,101431.81
2022-10-31T02:57:05.036Z,101435.53
2022-10-31T02:59:35.373Z,101437.06
2022-10-31T03:02:56.656Z,101439.50
2022-10-31T03:05:48.642Z,101442.69
2022-10-31T03:08:26.720Z,101444.00
2022-10-31T03:10:59.769Z,101440.97
2022-10-31T03:13:40.708Z,101445.94
2022-10-31T03:16:16.201Z,101450.09
2022-10-31T03:18:54.757Z,101453.16
2022-10-31T03:21:32.390Z,101445.41
2022-10-31T03:24:03.237Z,101450.47
2022-10-31T03:26:32.579Z,101456.19
2022-10-31T03:29:06.930Z,101460.91
2022-10-31T03:31:42.531Z,101462.28
2022-10-31T03:34:14.401Z,101467.31
2022-10-31T03:36:46.780Z,101470.84
2022-10-31T03:39:20.117Z,101467.91
2022-10-31T03:41:56.134Z,101471.16
2022-10-31T03:44:29.077Z,101472.16
2022-10-31T03:46:57.089Z,101475.03
2022-10-31T03:49:25.466Z,101478.22
2022-10-31T03:52:02.208Z,101476.56
2022-10-31T03:54:39.700Z,101478.88
2022-10-31T03:57:18.667Z,101483.56
2022-10-31T03:59:53.349Z,101482.72
2022-10-31T04:02:28.410Z,101485.41
2022-10-31T04:04:57.925Z,101483.72
2022-10-31T04:07:32.628Z,101487.72
2022-10-31T04:10:07.847Z,101490.00
2022-10-31T04:12:39.774Z,101490.00
2022-10-31T04:15:11.016Z,101496.38
2022-10-31T04:17:43.957Z,101496.53
2022-10-31T04:20:12.975Z,101503.81
2022-10-31T04:22:42.157Z,101485.91
2022-10-31T04:25:10.891Z,101490.59
2022-10-31T04:27:39.018Z,101500.19
2022-10-31T04:30:08.781Z,101496.31
2022-10-31T04:32:36.380Z,101504.09
2022-10-31T04:35:04.378Z,101500.84
2022-10-31T04:37:32.117Z,101508.13
2022-10-31T04:40:01.300Z,101504.03
2022-10-31T04:42:31.390Z,101498.41
2022-10-31T04:44:59.198Z,101504.78
2022-10-31T04:47:27.021Z,101500.09
2022-10-31T04:49:54.784Z,101512.03
2022-10-31T04:52:22.517Z,101514.91
2022-10-31T04:54:50.389Z,101508.34
2022-10-31T04:57:19.523Z,101507.78
2022-10-31T04:59:47.291Z,101510.09
2022-10-31T05:02:15.190Z,101516.75
2022-10-31T05:04:43.092Z,101513.19
2022-10-31T05:07:10.884Z,101512.63
2022-10-31T05:09:38.643Z,101521.59
2022-10-31T05:12:06.689Z,101509.94
2022-10-31T05:14:35.827Z,101507.41
2022-10-31T05:17:03.625Z,101517.81
2022-10-31T05:19:31.402Z,101522.34
2022-10-31T05:21:59.179Z,101516.94
2022-10-31T05:24:26.995Z,101520.81
2022-10-31T05:26:54.782Z,101525.50
2022-10-31T05:29:22.565Z,101521.53
2022-10-31T05:31:51.713Z,101525.03
2022-10-31T05:34:19.563Z,101525.03
2022-10-31T05:36:47.376Z,101524.06
2022-10-31T05:39:15.241Z,101526.06
2022-10-31T05:41:43.103Z,101528.59
2022-10-31T05:44:11.043Z,101533.53
2022-10-31T05:46:39.141Z,101532.53
2022-10-31T05:49:08.301Z,101532.84
2022-10-31T05:51:36.158Z,101533.84
2022-10-31T05:54:04.033Z,101536.69
2022-10-31T05:56:31.890Z,101541.09
2022-10-31T05:58:59.673Z,101543.09
2022-10-31T06:01:27.805Z,101540.56
2022-10-31T06:03:55.667Z,101552.16
2022-10-31T06:06:24.959Z,101541.09
2022-10-31T06:08:52.847Z,101550.16
2022-10-31T06:11:20.651Z,101547.88
2022-10-31T06:13:48.485Z,101551.81
2022-10-31T06:16:16.469Z,101554.59
2022-10-31T06:18:44.219Z,101546.88
2022-10-31T06:21:13.691Z,101547.88
2022-10-31T06:23:45.637Z,101560.38
2022-10-31T06:26:13.426Z,101561.75
2022-10-31T06:28:42.604Z,101566.44
2022-10-31T06:31:10.620Z,101570.53
2022-10-31T06:33:38.477Z,101564.00
2022-10-31T06:36:06.856Z,101573.47
2022-10-31T06:38:34.671Z,101571.22
2022-10-31T06:41:06.673Z,101569.41
2022-10-31T06:43:35.014Z,101569.78
2022-10-31T06:46:05.913Z,101576.72
2022-10-31T06:48:34.090Z,101586.59
2022-10-31T06:51:02.458Z,101590.66
2022-10-31T06:53:31.595Z,101594.22
2022-10-31T06:55:59.747Z,101602.47
2022-10-31T06:58:28.946Z,101599.56
2022-10-31T07:00:56.825Z,101602.25
2022-10-31T07:03:24.615Z,101605.75
2022-10-31T07:05:52.381Z,101604.13
2022-10-31T07:08:20.341Z,101598.47
2022-10-31T07:10:54.854Z,101605.56
2022-10-31T07:13:26.382Z,101597.63
2022-10-31T07:16:01.571Z,101600.09
2022-10-31T07:18:30.078Z,101608.47
2022-10-31T07:20:58.283Z,101606.03
2022-10-31T07:23:26.246Z,101609.66
2022-10-31T07:25:57.733Z,101606.94
2022-10-31T07:28:26.150Z,101605.22
2022-10-31T07:30:57.166Z,101607.69
2022-10-31T07:33:27.748Z,101610.41
2022-10-31T07:35:56.053Z,101610.44
2022-10-31T07:38:23.883Z,101613.59
2022-10-31T07:40:53.921Z,101612.59
2022-10-31T07:43:22.035Z,101628.47
2022-10-31T07:45:55.558Z,101623.06
2022-10-31T07:48:23.643Z,101624.47
2022-10-31T07:50:51.565Z,101622.75
2022-10-31T07:53:19.364Z,101624.91
2022-10-31T07:55:47.343Z,101619.91
2022-10-31T07:58:18.152Z,101625.88
2022-10-31T08:00:48.984Z,101625.34
2022-10-31T08:03:20.892Z,101632.41
2022-10-31T08:05:48.843Z,101641.78
2022-10-31T08:08:17.689Z,101643.16
2022-10-31T08:10:45.610Z,101641.00
2022-10-31T08:13:15.925Z,101639.81
2022-10-31T08:15:43.920Z,101643.38
2022-10-31T08:18:15.480Z,101649.78
2022-10-31T08:20:45.885Z,101656.03
2022-10-31T08:23:15.258Z,101650.56
2022-10-31T08:25:43.849Z,101665.41
2022-10-31T08:28:13.489Z,101664.03
2022-10-31T08:30:42.851Z,101648.97
2022-10-31T08:33:14.050Z,101656.31
2022-10-31T08:35:44.077Z,101660.84
2022-10-31T08:38:13.603Z,101652.78
2022-10-31T08:40:41.457Z,101649.09
2022-10-31T08:43:15.059Z,101646.63
2022-10-31T08:45:44.732Z,101644.00
2022-10-31T08:48:15.486Z,101643.41
2022-10-31T08:50:46.583Z,101645.97
2022-10-31T08:53:17.446Z,101644.47
2022-10-31T08:55:47.548Z,101640.91
2022-10-31T08:58:20.804Z,101653.44
2022-10-31T09:00:51.191Z,101647.19
2022-10-31T09:03:22.355Z,101651.84
2022-10-31T09:05:53.044Z,101655.59
2022-10-31T09:08:20.892Z,101665.06
2022-10-31T09:10:48.834Z,101662.53
2022-10-31T09:13:19.404Z,101655.78
2022-10-31T09:15:50.974Z,101661.59
2022-10-31T09:18:21.964Z,101661.97
2022-10-31T09:20:52.664Z,101669.78
2022-10-31T09:23:23.143Z,101670.47
2022-10-31T09:25:53.747Z,101662.34
2022-10-31T09:28:24.840Z,101668.13
2022-10-31T09:30:55.560Z,101666.81
2022-10-31T09:33:23.977Z,101674.28
2022-10-31T09:35:53.395Z,101672.91
2022-10-31T09:38:24.339Z,101675.09
2022-10-31T09:41:07.383Z,101675.63
2022-10-31T09:43:49.158Z,101684.59
2022-10-31T09:46:31.999Z,101689.03
2022-10-31T09:49:42.704Z,101689.25
2022-10-31T09:52:20.441Z,101679.03
2022-10-31T09:54:55.376Z,101684.50
2022-10-31T09:57:30.099Z,101680.75
2022-10-31T09:59:58.881Z,101685.50
2022-10-31T10:02:33.436Z,101689.88
2022-10-31T10:05:05.039Z,101682.78
2022-10-31T10:07:46.311Z,101687.34
2022-10-31T10:10:25.432Z,101672.91
2022-10-31T10:13:22.438Z,101682.00
2022-10-31T10:16:14.759Z,101677.63
2022-10-31T10:19:09.345Z,101680.47
2022-10-31T10:21:50.136Z,101682.50
2022-10-31T10:24:40.813Z,101677.53
2022-10-31T10:27:23.671Z,101682.97
2022-10-31T10:30:00.386Z,101674.38
2022-10-31T10:32:38.639Z,101671.63
2022-10-31T10:35:21.203Z,101671.94
2022-10-31T10:37:55.951Z,101672.66
2022-10-31T10:40:29.036Z,101668.09
2022-10-31T10:43:21.393Z,101663.44
2022-10-31T10:46:17.050Z,101660.63
2022-10-31T10:48:53.207Z,101658.75
2022-10-31T10:51:39.033Z,101656.44
2022-10-31T10:54:42.025Z,101659.78
2022-10-31T10:57:30.212Z,101666.13
2022-10-31T11:00:17.803Z,101668.47
2022-10-31T11:02:48.836Z,101664.09
2022-10-31T11:05:26.608Z,101663.28
2022-10-31T11:07:54.463Z,101661.53
2022-10-31T11:10:22.633Z,101662.09
2022-10-31T11:13:06.850Z,101650.50
2022-10-31T11:15:51.509Z,101651.75
2022-10-31T11:21:01.809Z,101647.66
2022-10-31T11:23:31.062Z,101651.47
2022-10-31T11:26:01.564Z,101644.59
2022-10-31T11:28:35.218Z,101637.59
2022-10-31T11:31:14.590Z,101642.06
2022-10-31T11:33:50.409Z,101643.50
2022-10-31T11:36:24.952Z,101643.97
2022-10-31T11:38:54.776Z,101642.53
2022-10-31T11:41:28.835Z,101641.44
2022-10-31T11:44:03.033Z,101644.47
2022-10-31T11:46:39.412Z,101644.06
2022-10-31T11:49:17.667Z,101636.38
2022-10-31T11:51:51.095Z,101639.50
2022-10-31T11:54:26.785Z,101637.03
2022-10-31T11:56:54.702Z,101632.81
2022-10-31T11:59:31.424Z,101635.63
2022-10-31T12:02:02.353Z,101631.50
2022-10-31T12:04:43.482Z,101633.19
2022-10-31T12:07:11.541Z,101629.91
2022-10-31T12:09:41.159Z,101625.69
2022-10-31T12:12:35.216Z,101623.44
2022-10-31T12:15:31.579Z,101625.31
2022-10-31T12:18:40.236Z,101628.31
2022-10-31T12:21:29.856Z,101618.91
2022-10-31T12:24:11.478Z,101614.34
2022-10-31T12:26:53.213Z,101608.38
2022-10-31T12:29:46.336Z,101610.19
2022-10-31T12:32:34.330Z,101607.66
2022-10-31T12:35:34.151Z,101599.59
2022-10-31T12:38:18.010Z,101599.22
2022-10-31T12:41:12.447Z,101605.84
2022-10-31T12:43:52.154Z,101604.53
2022-10-31T12:46:38.067Z,101605.59
2022-10-31T12:49:32.464Z,101593.28
2022-10-31T12:52:21.778Z,101591.97
2022-10-31T12:55:27.458Z,101596.00
2022-10-31T12:58:03.273Z,101598.66
2022-10-31T13:00:38.734Z,101601.56
2022-10-31T13:03:27.237Z,101600.72
2022-10-31T13:06:05.135Z,101596.75
2022-10-31T13:08:42.521Z,101592.47
2022-10-31T13:11:16.561Z,101595.66
2022-10-31T13:14:00.383Z,101593.66
2022-10-31T13:16:32.774Z,101595.91
2022-10-31T13:19:10.696Z,101601.53
2022-10-31T13:21:51.332Z,101593.66
2022-10-31T13:24:25.550Z,101586.97
2022-10-31T13:26:58.500Z,101596.72
2022-10-31T13:29:34.149Z,101598.44
2022-10-31T13:32:06.907Z,101590.16
2022-10-31T13:34:45.162Z,101589.31
2022-10-31T13:37:24.982Z,101596.91
2022-10-31T13:40:07.918Z,101602.97
2022-10-31T13:42:55.918Z,101590.09
2022-10-31T13:45:26.683Z,101590.75
2022-10-31T13:48:01.441Z,101585.44
2022-10-31T13:50:31.838Z,101589.53
2022-10-31T13:53:22.139Z,101586.56
2022-10-31T13:55:52.403Z,101587.06
2022-10-31T13:58:26.829Z,101583.22
2022-10-31T14:01:19.066Z,101578.09
2022-10-31T14:04:07.660Z,101583.94
2022-10-31T14:06:55.742Z,101576.16
2022-10-31T14:09:39.616Z,101572.97
2022-10-31T14:12:28.985Z,101571.44
2022-10-31T14:15:05.059Z,101571.25
2022-10-31T14:17:47.174Z,101571.88
2022-10-31T14:20:39.088Z,101569.53
2022-10-31T14:23:35.528Z,101564.03
2022-10-31T14:26:38.908Z,101562.75
2022-10-31T14:29:26.684Z,101563.09
2022-10-31T14:31:59.000Z,101559.72
2022-10-31T14:34:35.807Z,101556.00
2022-10-31T14:38:04.374Z,101561.97
2022-10-31T14:40:51.080Z,101556.00
2022-10-31T14:43:54.433Z,101554.75
2022-10-31T14:46:44.840Z,101553.88
2022-10-31T14:49:37.006Z,101548.47
2022-10-31T14:52:09.948Z,101539.78
2022-10-31T14:54:44.269Z,101544.75
2022-10-31T14:57:24.571Z,101544.09
2022-10-31T15:00:02.632Z,101535.63
2022-10-31T15:02:39.277Z,101545.78
2022-10-31T15:05:12.105Z,101545.16
2022-10-31T15:07:52.567Z,101538.84
2022-10-31T15:10:27.710Z,101544.56
2022-10-31T15:12:55.576Z,101538.16
2022-10-31T15:15:27.855Z,101532.19
2022-10-31T15:18:00.065Z,101533.94
2022-10-31T15:20:32.224Z,101534.63
2022-10-31T15:23:02.016Z,101536.03
2022-10-31T15:25:35.290Z,101532.66
2022-10-31T15:28:03.611Z,101529.97
2022-10-31T15:30:33.035Z,101527.56
2022-10-31T15:33:00.906Z,101523.28
2022-10-31T15:35:32.362Z,101523.50
2022-10-31T15:38:02.590Z,101521.50
2022-10-31T15:40:30.696Z,101522.00
2022-10-31T15:43:03.186Z,101520.81
2022-10-31T15:45:33.598Z,101516.25
2022-10-31T15:48:04.999Z,101514.03
2022-10-31T15:50:39.178Z,101520.81
2022-10-31T15:53:20.455Z,101520.16
2022-10-31T15:55:52.135Z,101519.44
2022-10-31T15:58:20.771Z,101511.47
2022-10-31T16:01:02.815Z,101515.53
2022-10-31T16:03:33.243Z,101519.44
2022-10-31T16:06:05.262Z,101516.41
2022-10-31T16:08:39.066Z,101513.69
2022-10-31T16:11:24.323Z,101514.41
2022-10-31T16:14:01.055Z,101520.13
2022-10-31T16:16:35.707Z,101519.47
2022-10-31T16:19:13.514Z,101522.16
2022-10-31T16:21:42.778Z,101521.53
2022-10-31T16:24:22.891Z,101525.06
2022-10-31T16:26:54.622Z,101521.81
2022-10-31T16:29:34.921Z,101520.31
2022-10-31T16:32:04.321Z,101519.78
2022-10-31T16:34:32.286Z,101518.78
2022-10-31T16:37:00.050Z,101519.50
2022-10-31T16:39:28.016Z,101520.16
2022-10-31T16:41:58.405Z,101523.56
2022-10-31T16:44:28.638Z,101525.63
2022-10-31T16:47:15.354Z,101514.03
2022-10-31T16:49:43.296Z,101523.84
2022-10-31T16:52:11.615Z,101520.13
2022-10-31T16:54:40.075Z,101516.44
2022-10-31T16:57:11.187Z,101518.47
2022-10-31T16:59:38.999Z,101508.66
2022-10-31T17:02:14.495Z,101513.03
2022-10-31T17:04:42.423Z,101513.75
2022-10-31T17:07:10.498Z,101516.63
2022-10-31T17:09:38.454Z,101513.41
2022-10-31T17:12:13.165Z,101512.22
2022-10-31T17:14:41.180Z,101510.88
2022-10-31T17:17:10.658Z,101511.03
2022-10-31T17:19:38.503Z,101504.28
2022-10-31T17:22:06.405Z,101508.19
2022-10-31T17:24:34.206Z,101503.63
2022-10-31T17:27:01.998Z,101499.91
2022-10-31T17:29:29.855Z,101502.44
2022-10-31T17:31:57.668Z,101499.03
2022-10-31T17:34:26.968Z,101502.59
2022-10-31T17:36:54.898Z,101505.81
2022-10-31T17:39:23.918Z,101494.63
2022-10-31T17:41:52.669Z,101497.84
2022-10-31T17:44:21.118Z,101497.50
2022-10-31T17:46:48.892Z,101494.50
2022-10-31T17:49:16.870Z,101492.97
2022-10-31T17:51:45.981Z,101490.75
2022-10-31T17:54:13.987Z,101490.41
2022-10-31T17:56:41.768Z,101489.09
2022-10-31T17:59:09.606Z,101486.34
2022-10-31T18:01:37.753Z,101490.44
2022-10-31T18:04:06.012Z,101492.09
2022-10-31T18:06:33.834Z,101486.88
2022-10-31T18:09:05.815Z,101487.03
2022-10-31T18:11:34.313Z,101482.31
2022-10-31T18:14:02.207Z,101484.84
2022-10-31T18:16:30.113Z,101475.00
2022-10-31T18:19:01.763Z,101479.25
2022-10-31T18:21:30.452Z,101480.59
2022-10-31T18:24:00.580Z,101476.22
2022-10-31T18:26:29.971Z,101478.06
2022-10-31T18:28:57.779Z,101472.47
2022-10-31T18:31:26.080Z,101471.44
2022-10-31T18:33:54.421Z,101470.28
2022-10-31T18:36:22.386Z,101471.44
2022-10-31T18:38:50.502Z,101468.41
2022-10-31T18:41:18.572Z,101468.75
2022-10-31T18:43:47.815Z,101469.09
2022-10-31T18:46:18.443Z,101462.00
2022-10-31T18:48:47.151Z,101461.31
2022-10-31T18:51:18.114Z,101465.38
2022-10-31T18:53:52.945Z,101460.31
2022-10-31T18:56:22.356Z,101455.56
2022-10-31T18:58:52.559Z,101461.66
2022-10-31T19:01:23.999Z,101456.56
2022-10-31T19:03:56.300Z,101458.59
2022-10-31T19:06:24.525Z,101453.53
2022-10-31T19:08:59.927Z,101451.00
2022-10-31T19:11:28.998Z,101440.00
2022-10-31T19:13:59.193Z,101444.75
2022-10-31T19:16:27.193Z,101442.34
2022-10-31T19:18:56.559Z,101442.03
2022-10-31T19:21:25.176Z,101443.53
2022-10-31T19:23:56.356Z,101432.22
2022-10-31T19:26:25.147Z,101430.53
2022-10-31T19:28:53.722Z,101424.78
2022-10-31T19:31:23.185Z,101434.09
2022-10-31T19:33:51.169Z,101422.75
2022-10-31T19:36:21.428Z,101422.75
2022-10-31T19:38:51.986Z,101422.06
2022-10-31T19:41:23.956Z,101431.53
2022-10-31T19:43:52.114Z,101421.91
2022-10-31T19:49:12.438Z,101417.34
2022-10-31T19:51:40.568Z,101421.72
2022-10-31T19:54:08.552Z,101414.63
2022-10-31T19:56:36.451Z,101409.56
2022-10-31T19:59:04.388Z,101411.06
2022-10-31T20:01:33.738Z,101409.19
2022-10-31T20:04:01.778Z,101397.69
2022-10-31T20:06:33.918Z,101393.16
2022-10-31T20:09:04.513Z,101387.91
2022-10-31T20:11:32.790Z,101392.31
2022-10-31T20:14:01.490Z,101384.00
2022-10-31T20:16:30.125Z,101381.97
2022-10-31T20:19:00.549Z,101383.69
2022-10-31T20:21:31.959Z,101383.69
2022-10-31T20:24:02.136Z,101383.16
2022-10-31T20:26:32.457Z,101386.41
2022-10-31T20:29:02.160Z,101384.50
2022-10-31T20:31:33.574Z,101385.88
2022-10-31T20:34:03.470Z,101390.44
2022-10-31T20:36:31.626Z,101385.53
2022-10-31T20:39:00.210Z,101383.84
2022-10-31T20:41:28.048Z,101376.41
2022-10-31T20:43:56.075Z,101377.09
2022-10-31T20:46:27.047Z,101375.25
2022-10-31T20:48:55.922Z,101377.09
2022-10-31T20:51:28.389Z,101379.13
2022-10-31T20:53:59.112Z,101361.72
2022-10-31T20:56:29.205Z,101370.50
2022-10-31T20:58:58.570Z,101367.94
2022-10-31T21:01:29.811Z,101360.50
2022-10-31T21:03:59.269Z,101353.59
2022-10-31T21:06:30.258Z,101357.13
2022-10-31T21:08:59.154Z,101346.13
2022-10-31T21:11:29.534Z,101350.69
2022-10-31T21:13:59.381Z,101347.16
2022-10-31T21:16:28.864Z,101347.16
2022-10-31T21:18:57.201Z,101345.81
2022-10-31T21:21:32.472Z,101343.94
2022-10-31T21:24:03.394Z,101347.31
2022-10-31T21:26:35.085Z,101339.22
2022-10-31T21:29:05.060Z,101334.66
2022-10-31T21:31:33.560Z,101327.19
2022-10-31T21:34:01.410Z,101326.00
2022-10-31T21:36:30.638Z,101327.88
2022-10-31T21:38:58.652Z,101322.47
2022-10-31T21:41:28.978Z,101323.66
2022-10-31T21:43:57.152Z,101324.31
2022-10-31T21:46:27.885Z,101315.00
2022-10-31T21:48:56.569Z,101307.22
2022-10-31T21:51:27.312Z,101303.66
2022-10-31T21:54:15.495Z,101306.69
2022-10-31T21:56:44.551Z,101301.97
2022-10-31T21:59:12.951Z,101304.16
2022-10-31T22:01:41.293Z,101293.34
2022-10-31T22:04:09.205Z,101300.13
2022-10-31T22:06:37.773Z,101294.88
2022-10-31T22:09:09.454Z,101296.44
2022-10-31T22:11:37.493Z,101292.53
2022-10-31T22:14:05.580Z,101288.97
2022-10-31T22:16:37.464Z,101281.00
2022-10-31T22:19:07.966Z,101290.16
2022-10-31T22:21:42.588Z,101292.50
2022-10-31T22:24:12.419Z,101302.13
2022-10-31T22:26:41.005Z,101295.41
2022-10-31T22:29:13.792Z,101293.03
2022-10-31T22:31:44.710Z,101295.06
2022-10-31T22:34:14.755Z,101284.78
2022-10-31T22:36:44.006Z,101285.94
2022-10-31T22:39:14.921Z,101285.44
2022-10-31T22:41:43.178Z,101285.06
2022-10-31T22:44:11.181Z,101280.34
2022-10-31T22:46:40.469Z,101268.97
2022-10-31T22:49:11.334Z,101265.63
2022-10-31T22:51:41.785Z,101260.72
2022-10-31T22:54:15.984Z,101263.41
2022-10-31T22:56:44.432Z,101265.78
2022-10-31T22:59:14.725Z,101256.81
2022-10-31T23:01:44.753Z,101258.31
2022-10-31T23:04:13.142Z,101250.56
2022-10-31T23:06:41.360Z,101244.13
2022-10-31T23:09:16.282Z,101240.59
2022-10-31T23:11:44.444Z,101236.91
2022-10-31T23:14:16.791Z,101220.34
2022-10-31T23:16:47.906Z,101224.75
2022-10-31T23:19:18.562Z,101223.19
2022-10-31T23:21:59.772Z,101225.59
2022-10-31T23:24:34.200Z,101218.66
2022-10-31T23:27:09.610Z,101217.28
2022-10-31T23:29:44.838Z,101210.53
2022-10-31T23:32:18.091Z,101205.94
2022-10-31T23:34:47.048Z,101200.19
2022-10-31T23:37:16.761Z,101205.47
2022-10-31T23:39:46.270Z,101194.31
2022-10-31T23:42:15.573Z,101180.94
2022-10-31T23:44:43.559Z,101197.16
2022-10-31T23:47:12.320Z,101199.56
2022-10-31T23:49:40.282Z,101192.94
2022-10-31T23:52:08.680Z,101185.84
2022-10-31T23:54:37.389Z,101187.06
2022-10-31T23:57:06.937Z,101172.81
2022-10-31T23:59:35.026Z,101162.31
